Kezdőlap
METAR-TAF:

METAR-TAF

Repülőterek :

Kuujjuaq, Québec, Kanada

földrajzi szélesség: 58-06N, földrajzi hosszúság: 068-25W, magasság: 37 m

Jelenlegi meteorológiai megfigyelések

A jelentés 47 perccel ezelõtt készült, 07:00 UTC
Déli szél 5 kt
Hőmérséklet 5°C
Páratartalom 75%
Légköri nyomás 1021 hPa
Látótávolság: 24.1 km
Szórványos felhőzet 4300 lábon
Borult 8100 lábon

METAR: CYVP 220700Z 18005KT 15SM SCT043 OVC081 05/01 A3015 RMK SC4AC4 SLP212

Idő: 03:47 (07:47 UTC)

Előrejelzés

A jelentés 2 órával és 9 perccel ezelõtt készült, 05:38 UTC
Az előrejelzés 22-én 06 óra UTC és 22-én 18 óra UTC között érvényes
Különbözõ irányokból fújó szél 3 kt
Látótávolság: 10 km
Kevés felhő 2000 lábon
Szakadozott felhőzet 9000 lábon
22-én 1400 órától UTC szerint
Déli szél 15 kt
Látótávolság: 10 km
Szakadozott felhőzet 3000 lábon

TAF: CYVP 220538Z 2206/2218 VRB03KT P6SM FEW020 BKN090 FM221400 19015KT P6SM BKN030 RMK NXT FCST BY 221200Z

Meteorológiai megfigyelések és előrejelzések több, mint 4000 repülőtéren (METAR és TAF jelentéseket).

A térképen piros és sárga pontok jelzik az elérhető meteorológiai állomásokat.

Mozgassa az egeret a pont fölött, hogy megjelenjen az állomás neve.

Azután kattintson az időjárási megfigyelések és előrejelzések megtekintéséhez.

A térkép megváltoztatása: kattintson a fekete keresztel jelölt zöld gombra ráközelítéshez, a vonallal jelölt zöld gombra távolításhoz, vagy a zöld nyilakra a szomszédos térképek eléréséhez.


METAR-TAF: